Time;durP1;ratioP1;P1;durP2;ratioP2;P2;SDS_P1;SDS_P2;PMS_P1;PMS_P2;Temp;Humidity;BMP_temperature;BMP_pressure;BME280_temperature;BME280_humidity;BME280_pressure;Samples;Min_cycle;Max_cycle;Signal;HPM_P1;HPM_P2
2024/01/27 00:01:40;;;;;;;35.60;4.18;;;4.90;99.90;;;;;;4955487;28;20024;-74
2024/01/27 00:04:05;;;;;;;31.55;3.72;;;4.90;99.90;;;;;;4955684;28;20473;-74
2024/01/27 00:06:31;;;;;;;40.15;4.97;;;4.80;99.90;;;;;;4955886;28;20094;-73
2024/01/27 00:08:57;;;;;;;39.58;4.20;;;4.80;99.90;;;;;;4935299;29;20055;-73
2024/01/27 00:11:24;;;;;;;31.27;4.30;;;4.80;99.90;;;;;;4935524;29;20031;-74
2024/01/27 00:13:50;;;;;;;35.28;4.68;;;4.70;99.90;;;;;;4937418;29;20028;-73
2024/01/27 00:16:15;;;;;;;25.15;3.80;;;4.70;99.90;;;;;;4937134;29;20462;-74
2024/01/27 00:18:41;;;;;;;38.35;5.25;;;4.70;99.90;;;;;;4936635;29;20043;-74
2024/01/27 00:21:07;;;;;;;30.80;4.45;;;4.70;99.90;;;;;;4935999;29;20028;-74
2024/01/27 00:23:34;;;;;;;43.42;4.35;;;4.70;99.90;;;;;;4936020;29;20481;-72
2024/01/27 00:26:00;;;;;;;27.50;3.72;;;4.60;99.90;;;;;;4936790;29;20024;-73
2024/01/27 00:28:25;;;;;;;40.88;4.85;;;4.60;99.90;;;;;;4935749;29;20043;-72
2024/01/27 00:30:51;;;;;;;39.53;4.72;;;4.50;99.90;;;;;;4936390;29;20079;-73
2024/01/27 00:33:16;;;;;;;41.97;4.78;;;4.50;99.90;;;;;;4935637;29;20041;-75
2024/01/27 00:35:43;;;;;;;39.45;4.22;;;4.60;99.90;;;;;;4937010;29;20044;-74
2024/01/27 00:38:08;;;;;;;37.88;4.10;;;4.50;99.90;;;;;;4936418;29;20087;-75
2024/01/27 00:40:34;;;;;;;39.17;4.45;;;4.50;99.90;;;;;;4935202;29;20028;-73
2024/01/27 00:43:01;;;;;;;37.10;4.45;;;4.50;99.90;;;;;;4936687;29;20023;-72
2024/01/27 00:45:28;;;;;;;50.90;4.90;;;4.50;99.90;;;;;;4935745;29;20032;-73
2024/01/27 00:47:54;;;;;;;41.75;4.57;;;4.50;99.90;;;;;;4936611;29;20056;-73
2024/01/27 00:50:19;;;;;;;30.80;3.92;;;4.40;99.90;;;;;;4936751;29;20032;-73
2024/01/27 00:52:45;;;;;;;34.58;4.47;;;4.40;99.90;;;;;;4936455;29;20028;-72
2024/01/27 00:55:10;;;;;;;33.58;4.45;;;4.50;99.90;;;;;;4936455;29;20062;-75
2024/01/27 00:57:39;;;;;;;36.42;4.18;;;4.40;99.90;;;;;;4936442;29;20024;-73
2024/01/27 01:00:07;;;;;;;27.92;3.92;;;4.30;99.90;;;;;;4934542;29;20028;-75
2024/01/27 01:02:32;;;;;;;30.33;3.90;;;4.30;99.90;;;;;;4936315;29;20032;-74
2024/01/27 01:04:58;;;;;;;42.20;4.70;;;4.30;99.90;;;;;;4935036;29;20043;-74
2024/01/27 01:07:23;;;;;;;38.95;5.20;;;4.30;99.90;;;;;;4938673;29;20051;-74
2024/01/27 01:09:49;;;;;;;39.80;4.38;;;4.30;99.90;;;;;;4955536;28;20033;-72
2024/01/27 01:12:15;;;;;;;33.33;4.90;;;4.30;99.90;;;;;;4953816;28;20151;-73
2024/01/27 01:14:41;;;;;;;43.92;4.90;;;4.20;99.90;;;;;;4936488;29;20040;-74
2024/01/27 01:17:07;;;;;;;37.60;4.70;;;4.20;99.90;;;;;;4937922;29;20039;-73
2024/01/27 01:19:32;;;;;;;43.03;5.15;;;4.20;99.90;;;;;;4937891;29;20028;-73
2024/01/27 01:21:58;;;;;;;37.28;4.85;;;4.20;99.90;;;;;;4955155;28;20032;-74
2024/01/27 01:24:23;;;;;;;42.33;4.57;;;4.20;99.90;;;;;;4955193;28;20042;-73
2024/01/27 01:26:49;;;;;;;28.00;4.20;;;4.10;99.90;;;;;;4954842;28;20042;-75
2024/01/27 01:29:14;;;;;;;37.70;4.80;;;4.10;99.90;;;;;;4937163;29;20058;-74
2024/01/27 01:31:44;;;;;;;33.40;4.35;;;4.10;99.90;;;;;;4937836;29;20023;-74
2024/01/27 01:34:10;;;;;;;39.80;4.22;;;4.10;99.90;;;;;;4936635;29;20050;-73
2024/01/27 01:36:35;;;;;;;42.38;4.40;;;4.10;99.90;;;;;;4954834;28;20031;-73
2024/01/27 01:39:01;;;;;;;39.50;4.38;;;4.10;99.90;;;;;;4954920;28;20023;-72
2024/01/27 01:41:26;;;;;;;38.03;4.70;;;4.00;99.90;;;;;;4954445;28;20046;-73
2024/01/27 01:43:52;;;;;;;33.47;3.67;;;4.00;99.90;;;;;;4937376;28;20019;-72
2024/01/27 01:46:18;;;;;;;32.25;4.40;;;4.00;99.90;;;;;;4954693;29;20111;-74
2024/01/27 01:48:44;;;;;;;31.85;4.13;;;4.00;99.90;;;;;;4952068;29;20027;-73
2024/01/27 01:51:11;;;;;;;37.05;4.47;;;4.00;99.90;;;;;;4936414;28;20450;-74
2024/01/27 01:53:36;;;;;;;33.72;4.05;;;4.00;99.90;;;;;;4954061;29;20023;-75
2024/01/27 01:56:04;;;;;;;42.38;4.93;;;4.00;99.90;;;;;;4953693;28;20067;-73
2024/01/27 01:58:33;;;;;;;41.58;4.40;;;4.00;99.90;;;;;;4953533;28;20048;-74
2024/01/27 02:01:03;;;;;;;32.38;4.28;;;3.90;99.90;;;;;;4936849;29;20032;-73
2024/01/27 02:03:28;;;;;;;49.05;4.38;;;3.90;99.90;;;;;;4952990;28;20028;-72
2024/01/27 02:05:55;;;;;;;40.95;4.57;;;3.90;99.90;;;;;;4952886;29;20034;-74
2024/01/27 02:08:21;;;;;;;30.52;5.00;;;3.90;99.90;;;;;;4934992;29;20055;-73
2024/01/27 02:10:46;;;;;;;39.95;4.07;;;3.90;99.90;;;;;;4953290;28;20023;-72
2024/01/27 02:13:20;;;;;;;30.88;4.65;;;3.90;99.90;;;;;;4936382;29;20030;-74
2024/01/27 02:15:46;;;;;;;35.25;4.75;;;3.90;99.90;;;;;;4953509;28;20480;-74
2024/01/27 02:18:12;;;;;;;43.13;4.53;;;3.80;99.90;;;;;;4935728;29;20035;-74
2024/01/27 02:20:38;;;;;;;32.20;4.47;;;3.80;99.90;;;;;;4936239;29;20152;-75
2024/01/27 02:23:04;;;;;;;30.73;4.22;;;3.80;99.90;;;;;;4953887;28;20027;-73
2024/01/27 02:25:31;;;;;;;33.97;4.30;;;3.80;99.90;;;;;;4939604;29;20031;-73
2024/01/27 02:27:57;;;;;;;35.92;4.18;;;3.80;99.90;;;;;;4940025;28;20019;-73
2024/01/27 02:30:23;;;;;;;42.70;4.03;;;3.80;99.90;;;;;;4940554;29;20031;-73
2024/01/27 02:32:49;;;;;;;36.38;3.78;;;3.80;99.90;;;;;;4957780;29;20035;-74
2024/01/27 02:35:16;;;;;;;36.60;4.57;;;3.80;99.90;;;;;;4956704;28;20043;-73
2024/01/27 02:37:42;;;;;;;37.85;4.38;;;3.80;99.90;;;;;;4957266;28;20067;-73
2024/01/27 02:40:09;;;;;;;44.05;4.38;;;3.80;99.90;;;;;;4940410;28;20027;-73
2024/01/27 02:42:35;;;;;;;48.10;5.28;;;3.80;99.90;;;;;;4939840;28;20043;-73
2024/01/27 02:45:01;;;;;;;45.75;5.47;;;3.80;99.90;;;;;;4956655;28;20036;-74
2024/01/27 02:47:27;;;;;;;42.05;4.63;;;3.80;99.90;;;;;;4956889;28;20039;-74
2024/01/27 02:49:53;;;;;;;45.17;4.97;;;3.80;99.90;;;;;;4956288;28;20027;-74
2024/01/27 02:52:18;;;;;;;38.58;4.00;;;3.80;99.90;;;;;;4956300;28;20020;-74
2024/01/27 02:54:44;;;;;;;46.40;4.25;;;3.80;99.90;;;;;;4956671;28;20039;-73
2024/01/27 02:57:09;;;;;;;33.40;4.68;;;3.70;99.90;;;;;;4939898;29;20082;-75
2024/01/27 02:59:35;;;;;;;34.00;4.50;;;3.80;99.90;;;;;;4956616;28;20029;-74
2024/01/27 03:02:01;;;;;;;39.30;4.32;;;3.80;99.90;;;;;;4956298;28;20027;-74
2024/01/27 03:04:26;;;;;;;38.88;4.40;;;3.70;99.90;;;;;;4955875;28;20019;-73
2024/01/27 03:06:55;;;;;;;31.60;4.20;;;3.70;99.90;;;;;;4938652;29;20031;-74
2024/01/27 03:09:20;;;;;;;37.60;5.00;;;3.70;99.90;;;;;;4956463;28;20048;-73
2024/01/27 03:11:46;;;;;;;29.45;4.05;;;3.70;99.90;;;;;;4939217;28;20102;-73
2024/01/27 03:14:14;;;;;;;32.45;4.03;;;3.70;99.90;;;;;;4956509;28;20082;-73
2024/01/27 03:16:40;;;;;;;32.90;4.57;;;3.70;99.90;;;;;;4955221;28;20027;-74
2024/01/27 03:19:06;;;;;;;43.53;4.80;;;3.70;99.90;;;;;;4956450;28;20102;-73
2024/01/27 03:21:35;;;;;;;27.58;3.97;;;3.70;99.90;;;;;;4938709;28;20091;-74
2024/01/27 03:24:00;;;;;;;30.27;4.03;;;3.70;99.90;;;;;;4938788;29;20032;-74
2024/01/27 03:26:26;;;;;;;34.63;4.43;;;3.70;99.90;;;;;;4955818;28;20086;-75
2024/01/27 03:28:52;;;;;;;41.13;4.95;;;3.70;99.90;;;;;;4955407;28;20023;-73
2024/01/27 03:31:17;;;;;;;28.95;3.88;;;3.70;99.90;;;;;;4938613;29;20541;-74
2024/01/27 03:33:43;;;;;;;44.22;4.75;;;3.60;99.90;;;;;;4939190;29;20059;-74
2024/01/27 03:36:13;;;;;;;32.42;4.20;;;3.60;99.90;;;;;;4954460;28;20477;-74
2024/01/27 03:38:43;;;;;;;43.00;5.20;;;3.60;99.90;;;;;;4938555;29;20031;-73
2024/01/27 03:41:08;;;;;;;29.52;3.95;;;3.60;99.90;;;;;;4955516;29;20038;-75
2024/01/27 03:43:34;;;;;;;39.85;4.78;;;3.60;99.90;;;;;;4953966;28;20019;-74
2024/01/27 03:46:00;;;;;;;36.30;4.43;;;3.60;99.90;;;;;;4955981;28;20075;-74
2024/01/27 03:48:25;;;;;;;36.40;4.75;;;3.60;99.90;;;;;;4956120;28;20031;-72
2024/01/27 03:50:51;;;;;;;42.00;4.88;;;3.60;99.90;;;;;;4955551;28;20043;-74
2024/01/27 03:53:16;;;;;;;34.58;4.10;;;3.60;99.90;;;;;;4955705;28;20019;-74
2024/01/27 03:55:42;;;;;;;43.00;4.45;;;3.50;99.90;;;;;;4956022;28;20488;-74
2024/01/27 03:58:08;;;;;;;24.25;4.30;;;3.50;99.90;;;;;;4955547;28;20027;-73
2024/01/27 04:00:33;;;;;;;30.52;3.80;;;3.50;99.90;;;;;;4938924;28;20042;-74
2024/01/27 04:03:00;;;;;;;40.28;4.20;;;3.50;99.90;;;;;;4938061;28;20039;-75
2024/01/27 04:05:27;;;;;;;36.10;4.90;;;3.40;99.90;;;;;;4955521;28;20055;-74
2024/01/27 04:07:52;;;;;;;33.72;4.03;;;3.40;99.90;;;;;;4955340;28;20071;-75
2024/01/27 04:10:19;;;;;;;43.15;6.07;;;3.40;99.90;;;;;;4955565;28;20044;-75
2024/01/27 04:12:44;;;;;;;39.75;4.70;;;3.40;99.90;;;;;;4954785;29;20035;-75
2024/01/27 04:15:10;;;;;;;40.17;4.68;;;3.40;99.90;;;;;;4955614;28;20055;-74
2024/01/27 04:17:37;;;;;;;43.47;5.25;;;3.40;99.90;;;;;;4939513;28;20062;-73
2024/01/27 04:20:06;;;;;;;45.05;5.45;;;3.30;99.90;;;;;;4938994;29;20038;-74
2024/01/27 04:22:31;;;;;;;27.23;4.15;;;3.30;99.90;;;;;;4939157;29;20134;-74
2024/01/27 04:24:57;;;;;;;34.53;4.53;;;3.30;99.90;;;;;;4938585;29;21364;-75
2024/01/27 04:27:23;;;;;;;36.03;5.05;;;3.30;99.90;;;;;;4955567;28;20035;-74
2024/01/27 04:29:48;;;;;;;41.88;4.47;;;3.20;99.90;;;;;;4956184;28;20039;-75
2024/01/27 04:32:14;;;;;;;35.60;4.97;;;3.20;99.90;;;;;;4954970;28;20079;-74
2024/01/27 04:34:39;;;;;;;28.85;4.82;;;3.20;99.90;;;;;;4956224;28;20051;-75
2024/01/27 04:37:05;;;;;;;34.88;4.82;;;3.20;99.90;;;;;;4955932;28;20038;-75
2024/01/27 04:39:31;;;;;;;35.00;4.45;;;3.20;99.90;;;;;;4955484;29;20031;-75
2024/01/27 04:41:56;;;;;;;34.53;4.63;;;3.20;99.90;;;;;;4956035;28;20055;-75
2024/01/27 04:44:22;;;;;;;30.05;4.15;;;3.20;99.90;;;;;;4955466;28;20024;-73
2024/01/27 04:46:48;;;;;;;41.70;5.03;;;3.20;99.90;;;;;;4954453;28;20062;-73
2024/01/27 04:49:14;;;;;;;30.30;4.47;;;3.20;99.90;;;;;;4938531;29;20035;-74
2024/01/27 04:51:40;;;;;;;48.95;6.00;;;3.20;99.90;;;;;;4955649;28;20047;-75
2024/01/27 04:54:06;;;;;;;42.15;4.82;;;3.10;99.90;;;;;;4955193;29;20047;-75
2024/01/27 04:56:31;;;;;;;35.60;5.03;;;3.10;99.90;;;;;;4938314;29;20020;-74
2024/01/27 04:58:57;;;;;;;34.03;4.55;;;3.10;99.90;;;;;;4938263;29;20056;-74
2024/01/27 05:01:23;;;;;;;38.45;5.50;;;3.10;99.90;;;;;;4954420;28;20033;-74
2024/01/27 05:03:48;;;;;;;36.70;4.20;;;3.10;99.90;;;;;;4938760;29;20027;-74
2024/01/27 05:06:14;;;;;;;34.22;4.65;;;3.10;99.90;;;;;;4955064;28;20036;-75
2024/01/27 05:08:39;;;;;;;26.05;4.05;;;3.10;99.90;;;;;;4952757;28;20421;-74
2024/01/27 05:11:06;;;;;;;34.08;4.25;;;3.10;99.90;;;;;;4953293;28;20032;-75
2024/01/27 05:13:31;;;;;;;21.42;3.60;;;3.10;99.90;;;;;;4954723;29;20080;-74
2024/01/27 05:15:57;;;;;;;36.60;5.03;;;3.10;99.90;;;;;;4937592;29;20039;-74
2024/01/27 05:18:22;;;;;;;41.22;4.68;;;3.10;99.90;;;;;;4937545;28;20020;-75
2024/01/27 05:20:48;;;;;;;38.83;4.25;;;3.10;99.90;;;;;;4955324;29;20031;-76
2024/01/27 05:23:14;;;;;;;30.90;4.43;;;3.10;99.90;;;;;;4937750;29;20055;-75
2024/01/27 05:25:39;;;;;;;36.60;4.95;;;3.10;99.90;;;;;;4955257;28;20031;-74
2024/01/27 05:28:05;;;;;;;33.13;6.35;;;3.10;99.90;;;;;;4937630;29;20038;-74
2024/01/27 05:30:31;;;;;;;27.27;4.88;;;3.10;99.90;;;;;;4954562;28;20035;-75
2024/01/27 05:32:56;;;;;;;31.42;4.68;;;3.10;99.90;;;;;;4954896;29;20050;-75
2024/01/27 05:35:22;;;;;;;43.03;5.50;;;3.10;99.90;;;;;;4954479;28;20051;-75
2024/01/27 05:37:48;;;;;;;24.77;5.22;;;3.10;99.90;;;;;;4954709;28;20040;-75
2024/01/27 05:40:14;;;;;;;43.05;5.95;;;3.10;99.90;;;;;;4954468;28;20051;-75
2024/01/27 05:42:42;;;;;;;29.80;5.82;;;3.10;99.90;;;;;;4937565;29;20075;-74
2024/01/27 05:45:10;;;;;;;40.08;5.40;;;3.10;99.90;;;;;;4954651;28;20022;-75
2024/01/27 05:47:35;;;;;;;43.08;6.97;;;3.10;99.90;;;;;;4949118;29;20095;-74
2024/01/27 05:50:01;;;;;;;40.42;4.78;;;3.10;99.90;;;;;;4953403;28;20039;-75
2024/01/27 05:52:26;;;;;;;30.23;4.72;;;3.10;99.90;;;;;;4937508;29;20023;-76
2024/01/27 05:54:52;;;;;;;32.58;4.93;;;3.10;99.90;;;;;;4954098;28;20042;-76
2024/01/27 05:57:18;;;;;;;26.67;3.92;;;3.10;99.90;;;;;;4937171;28;20031;-75
2024/01/27 05:59:43;;;;;;;27.27;4.43;;;3.10;99.90;;;;;;4951221;28;20023;-75
2024/01/27 06:02:09;;;;;;;29.65;4.10;;;3.10;99.90;;;;;;4954735;28;20031;-74
2024/01/27 06:04:34;;;;;;;33.38;4.68;;;3.10;99.90;;;;;;4953306;29;20028;-75
2024/01/27 06:07:00;;;;;;;24.35;3.97;;;3.10;99.90;;;;;;4952656;28;20031;-75
2024/01/27 06:09:26;;;;;;;29.00;4.93;;;3.10;99.90;;;;;;4953568;28;20043;-74
2024/01/27 06:11:51;;;;;;;42.05;5.70;;;3.10;99.90;;;;;;4937694;29;20033;-75
2024/01/27 06:14:17;;;;;;;32.88;4.88;;;3.10;99.90;;;;;;4937303;29;20058;-75
2024/01/27 06:16:42;;;;;;;36.90;4.30;;;3.10;99.90;;;;;;4954383;28;20488;-74
2024/01/27 06:19:09;;;;;;;35.42;4.03;;;3.10;99.90;;;;;;4934551;29;20031;-74
2024/01/27 06:21:35;;;;;;;31.02;3.95;;;3.00;99.90;;;;;;4936843;29;20088;-74
2024/01/27 06:24:00;;;;;;;23.00;4.75;;;3.10;99.90;;;;;;4953414;28;20035;-74
2024/01/27 06:26:26;;;;;;;30.40;4.78;;;3.00;99.90;;;;;;4936332;29;20039;-75
2024/01/27 06:28:51;;;;;;;35.47;4.43;;;3.10;99.90;;;;;;4953688;28;20032;-75
2024/01/27 06:31:17;;;;;;;36.10;4.32;;;3.10;99.90;;;;;;4953973;29;20388;-76
2024/01/27 06:33:43;;;;;;;23.75;4.03;;;3.00;99.90;;;;;;4936832;29;20043;-75
2024/01/27 06:36:09;;;;;;;31.23;5.00;;;3.00;99.90;;;;;;4954475;29;20087;-75
2024/01/27 06:38:36;;;;;;;38.47;5.72;;;3.10;99.90;;;;;;4936503;29;20031;-74
2024/01/27 06:41:03;;;;;;;29.63;4.55;;;3.00;99.90;;;;;;4954259;28;20090;-75
2024/01/27 06:43:29;;;;;;;22.75;4.50;;;3.00;99.90;;;;;;4951640;28;20067;-75
2024/01/27 06:45:56;;;;;;;31.38;4.93;;;3.00;99.90;;;;;;4936228;29;20091;-74
2024/01/27 06:48:25;;;;;;;27.75;4.53;;;3.00;99.90;;;;;;4953566;29;20015;-75
2024/01/27 06:50:50;;;;;;;27.98;4.55;;;3.00;99.90;;;;;;4953106;28;20051;-75
2024/01/27 06:53:18;;;;;;;33.58;4.47;;;3.00;99.90;;;;;;4952283;29;20075;-75
2024/01/27 06:55:43;;;;;;;25.13;4.30;;;3.00;99.90;;;;;;4953906;28;20091;-75
2024/01/27 06:58:09;;;;;;;28.27;5.60;;;2.90;99.90;;;;;;4951704;29;20440;-76
2024/01/27 07:00:34;;;;;;;33.03;4.75;;;2.90;99.90;;;;;;4953245;29;20053;-75
2024/01/27 07:03:00;;;;;;;35.78;5.53;;;2.90;99.90;;;;;;4953407;28;20035;-75
2024/01/27 07:05:25;;;;;;;33.00;4.43;;;2.90;99.90;;;;;;4936135;29;20027;-74
2024/01/27 07:07:51;;;;;;;37.40;5.18;;;2.90;99.90;;;;;;4953741;28;20078;-74
2024/01/27 07:10:17;;;;;;;23.83;4.55;;;2.90;99.90;;;;;;4936866;29;20057;-74
2024/01/27 07:12:42;;;;;;;23.25;4.47;;;2.80;99.90;;;;;;4940046;28;20086;-75
2024/01/27 07:15:08;;;;;;;114.57;32.80;;;2.80;99.90;;;;;;4937982;29;20071;-74
2024/01/27 07:17:34;;;;;;;82.93;24.58;;;2.80;99.90;;;;;;4957675;28;20118;-75
2024/01/27 07:19:59;;;;;;;59.17;24.67;;;2.80;99.90;;;;;;4956426;28;20050;-76
2024/01/27 07:22:25;;;;;;;34.35;12.65;;;2.80;99.90;;;;;;4939495;28;20027;-76
2024/01/27 07:24:51;;;;;;;43.88;13.75;;;2.80;99.90;;;;;;4957206;28;20031;-74
2024/01/27 07:27:18;;;;;;;36.45;8.20;;;2.70;99.90;;;;;;4937649;29;20091;-76
2024/01/27 07:29:44;;;;;;;31.90;5.88;;;2.70;99.90;;;;;;4956332;28;20032;-76
2024/01/27 07:32:13;;;;;;;30.85;5.00;;;2.70;99.90;;;;;;4957591;28;20086;-74
2024/01/27 07:34:41;;;;;;;24.70;4.90;;;2.70;99.90;;;;;;4956175;28;20028;-75
2024/01/27 07:37:06;;;;;;;31.52;5.20;;;2.70;99.90;;;;;;4953622;29;20757;-74
2024/01/27 07:39:32;;;;;;;32.17;5.57;;;2.70;99.90;;;;;;4955411;28;20130;-74
2024/01/27 07:41:58;;;;;;;34.97;4.80;;;2.70;99.90;;;;;;4956699;28;20028;-75
2024/01/27 07:44:23;;;;;;;22.08;4.15;;;2.80;99.90;;;;;;4955440;28;20032;-76
2024/01/27 07:46:49;;;;;;;23.10;4.60;;;2.80;99.90;;;;;;4956131;28;20024;-76
2024/01/27 07:49:15;;;;;;;35.58;5.70;;;2.80;99.90;;;;;;4937059;28;20035;-75
2024/01/27 07:51:40;;;;;;;26.20;5.25;;;2.90;99.90;;;;;;4955390;28;20035;-74
2024/01/27 07:54:06;;;;;;;27.70;5.57;;;2.90;99.90;;;;;;4953444;28;20054;-74
2024/01/27 07:56:31;;;;;;;36.05;6.53;;;3.00;99.90;;;;;;4954664;29;20090;-76
2024/01/27 07:58:57;;;;;;;33.20;7.32;;;3.20;99.90;;;;;;4948719;29;20031;-75
2024/01/27 08:01:22;;;;;;;23.42;5.50;;;3.40;99.90;;;;;;4951527;28;20050;-75
2024/01/27 08:03:48;;;;;;;27.73;6.55;;;3.50;99.90;;;;;;4953985;28;20081;-74
2024/01/27 08:06:19;;;;;;;40.25;9.18;;;3.60;99.90;;;;;;4950859;28;20040;-75
2024/01/27 08:08:48;;;;;;;37.17;7.38;;;3.70;99.90;;;;;;4953271;29;20514;-76
2024/01/27 08:11:15;;;;;;;24.77;6.35;;;3.90;99.90;;;;;;4938047;29;20034;-75
2024/01/27 08:13:41;;;;;;;37.88;6.20;;;4.10;99.90;;;;;;4955684;28;20403;-75
2024/01/27 08:16:09;;;;;;;25.98;5.60;;;4.30;99.90;;;;;;4955246;28;20038;-75
2024/01/27 08:18:35;;;;;;;17.55;5.15;;;4.60;99.90;;;;;;4955291;28;20059;-76
2024/01/27 08:21:01;;;;;;;28.77;4.90;;;4.80;99.90;;;;;;4954452;28;20552;-75
2024/01/27 08:23:26;;;;;;;25.80;5.30;;;5.00;99.90;;;;;;4937706;29;20042;-75
2024/01/27 08:25:52;;;;;;;28.00;5.03;;;5.10;99.90;;;;;;4937057;29;20535;-72
2024/01/27 08:28:18;;;;;;;28.13;5.03;;;5.30;99.90;;;;;;4954184;28;20028;-75
2024/01/27 08:30:44;;;;;;;23.70;5.25;;;5.40;99.90;;;;;;4937998;29;20038;-73
2024/01/27 08:33:10;;;;;;;37.40;4.93;;;5.50;99.90;;;;;;4935811;29;20038;-75
2024/01/27 08:35:35;;;;;;;22.50;5.53;;;5.70;99.90;;;;;;4954264;28;20035;-76
2024/01/27 08:38:01;;;;;;;22.00;4.72;;;5.90;99.90;;;;;;4952987;28;20019;-72
2024/01/27 08:40:26;;;;;;;28.23;5.25;;;6.10;99.90;;;;;;4954629;29;20064;-73
2024/01/27 08:42:52;;;;;;;25.85;4.85;;;6.30;99.90;;;;;;4953729;28;20023;-73
2024/01/27 08:45:18;;;;;;;19.77;4.25;;;6.50;99.90;;;;;;4934558;29;20020;-78
2024/01/27 08:47:43;;;;;;;25.75;4.80;;;6.70;99.90;;;;;;4954373;28;20031;-77
2024/01/27 08:50:10;;;;;;;20.98;4.63;;;6.70;99.90;;;;;;4954008;28;20023;-74
2024/01/27 08:52:36;;;;;;;25.00;4.93;;;6.90;99.90;;;;;;4954667;28;20027;-75
2024/01/27 08:55:02;;;;;;;19.65;5.35;;;7.00;99.90;;;;;;4954847;28;20023;-74
2024/01/27 08:57:27;;;;;;;25.65;4.68;;;7.20;99.90;;;;;;4933999;29;20051;-75
2024/01/27 08:59:53;;;;;;;20.35;4.07;;;7.30;99.90;;;;;;4953631;28;20092;-74
2024/01/27 09:02:18;;;;;;;21.25;4.68;;;7.40;99.90;;;;;;4936751;29;20020;-74
2024/01/27 09:04:44;;;;;;;23.02;4.53;;;7.30;99.90;;;;;;4932951;28;20031;-74
2024/01/27 09:07:09;;;;;;;23.50;4.18;;;7.30;99.90;;;;;;4951733;28;20122;-74
2024/01/27 09:09:35;;;;;;;20.70;3.83;;;7.40;99.90;;;;;;4933197;29;20034;-73
2024/01/27 09:12:00;;;;;;;24.55;5.80;;;7.40;99.90;;;;;;4949143;29;20062;-74
2024/01/27 09:14:26;;;;;;;33.55;4.97;;;7.50;99.90;;;;;;4931630;28;20099;-74
2024/01/27 09:16:52;;;;;;;21.23;4.72;;;7.60;99.90;;;;;;4951793;28;20032;-75
2024/01/27 09:19:18;;;;;;;24.83;4.60;;;7.70;99.90;;;;;;4952844;28;20019;-74
2024/01/27 09:21:43;;;;;;;19.80;4.20;;;7.70;99.90;;;;;;4937165;29;20031;-74
2024/01/27 09:24:09;;;;;;;23.90;4.20;;;7.80;99.90;;;;;;4937343;29;20027;-74
2024/01/27 09:26:34;;;;;;;37.67;5.53;;;7.90;99.90;;;;;;4936718;29;20027;-75
2024/01/27 09:29:00;;;;;;;23.80;4.55;;;7.80;99.90;;;;;;4951664;28;20031;-73
2024/01/27 09:31:26;;;;;;;26.88;4.80;;;7.60;99.90;;;;;;4949772;28;20051;-73
2024/01/27 09:33:53;;;;;;;22.52;4.80;;;7.40;99.90;;;;;;4949128;28;20052;-74
2024/01/27 09:36:19;;;;;;;42.42;9.48;;;7.30;99.90;;;;;;4954031;28;20084;-74
2024/01/27 09:38:46;;;;;;;34.53;9.82;;;7.20;99.90;;;;;;4952876;28;20031;-74
2024/01/27 09:41:13;;;;;;;30.23;6.38;;;7.10;99.90;;;;;;4952286;28;20133;-74
2024/01/27 09:43:46;;;;;;;23.17;4.97;;;7.10;99.90;;;;;;4953878;29;20028;-73
2024/01/27 09:46:15;;;;;;;23.27;5.03;;;7.10;99.90;;;;;;4936474;29;20027;-73
2024/01/27 09:48:42;;;;;;;23.10;4.63;;;7.20;99.90;;;;;;4953628;28;20039;-74
2024/01/27 09:51:09;;;;;;;19.52;4.78;;;7.30;99.90;;;;;;4953569;28;20031;-72
2024/01/27 09:53:35;;;;;;;27.38;5.15;;;7.60;99.90;;;;;;4953821;29;20032;-74
2024/01/27 09:56:01;;;;;;;22.35;5.03;;;8.00;99.90;;;;;;4952756;28;20043;-73
2024/01/27 09:58:29;;;;;;;22.05;5.40;;;8.40;99.90;;;;;;4935932;29;20027;-74
2024/01/27 10:00:59;;;;;;;27.88;5.30;;;8.70;99.90;;;;;;4936628;29;20035;-75
2024/01/27 10:03:26;;;;;;;28.95;5.20;;;9.10;99.90;;;;;;4953814;28;20123;-73
2024/01/27 10:05:53;;;;;;;24.38;4.53;;;9.00;99.90;;;;;;4951993;28;20056;-73
2024/01/27 10:08:20;;;;;;;26.65;5.75;;;8.90;99.90;;;;;;4935078;28;20055;-72
2024/01/27 10:10:46;;;;;;;25.48;4.65;;;8.90;99.90;;;;;;4954259;28;20023;-73
2024/01/27 10:13:15;;;;;;;25.38;4.93;;;9.00;99.90;;;;;;4952476;28;20042;-74
2024/01/27 10:15:40;;;;;;;24.27;5.13;;;9.10;99.90;;;;;;4954004;28;20046;-74
2024/01/27 10:18:07;;;;;;;26.60;4.88;;;9.20;99.90;;;;;;4947859;28;20090;-75
2024/01/27 10:20:33;;;;;;;24.45;4.90;;;9.30;99.90;;;;;;4953882;28;20038;-75
2024/01/27 10:23:09;;;;;;;20.70;5.70;;;9.70;99.90;;;;;;4937062;29;20031;-75
2024/01/27 10:25:39;;;;;;;33.75;8.02;;;9.90;99.90;;;;;;4953203;28;20031;-73
2024/01/27 10:28:08;;;;;;;25.83;6.07;;;10.10;99.90;;;;;;4953199;28;20019;-72
2024/01/27 10:30:34;;;;;;;32.65;4.78;;;10.30;99.90;;;;;;4952775;28;20092;-73
2024/01/27 10:32:59;;;;;;;27.38;5.55;;;10.30;99.90;;;;;;4935058;28;20028;-73
2024/01/27 10:35:25;;;;;;;30.05;5.53;;;10.50;99.90;;;;;;4934434;28;20130;-74
2024/01/27 10:37:55;;;;;;;24.23;5.40;;;10.60;99.90;;;;;;4949765;29;20042;-74
2024/01/27 10:40:24;;;;;;;25.05;5.38;;;10.60;99.90;;;;;;4953174;29;20023;-75
2024/01/27 10:43:01;;;;;;;24.50;5.35;;;10.60;99.90;;;;;;4952621;28;20020;-73
2024/01/27 10:45:28;;;;;;;23.98;5.22;;;10.50;99.90;;;;;;4953865;28;20031;-75
2024/01/27 10:47:59;;;;;;;25.52;5.43;;;10.40;99.90;;;;;;4956152;28;20071;-73
2024/01/27 10:50:26;;;;;;;22.00;5.45;;;10.40;99.90;;;;;;4956474;28;20023;-72
2024/01/27 10:52:52;;;;;;;25.27;5.38;;;10.40;99.90;;;;;;4956747;28;20027;-73
2024/01/27 10:55:19;;;;;;;22.35;5.25;;;10.40;99.90;;;;;;4955173;28;20035;-71
2024/01/27 10:57:46;;;;;;;26.80;5.80;;;10.40;99.90;;;;;;4956099;28;20034;-73
2024/01/27 11:00:14;;;;;;;24.77;4.95;;;10.50;99.90;;;;;;4956158;28;20040;-74
2024/01/27 11:02:41;;;;;;;25.23;6.03;;;10.50;99.90;;;;;;4955712;28;20042;-75
2024/01/27 11:05:10;;;;;;;21.60;4.88;;;10.70;99.90;;;;;;4956128;28;20016;-73
2024/01/27 11:07:38;;;;;;;35.10;7.50;;;10.80;99.90;;;;;;4936477;29;20953;-73
2024/01/27 11:10:04;;;;;;;25.60;6.82;;;10.80;99.90;;;;;;4956085;28;20040;-74
2024/01/27 11:12:30;;;;;;;22.77;5.50;;;10.70;99.90;;;;;;4955742;28;20034;-73
2024/01/27 11:14:59;;;;;;;18.73;5.25;;;10.70;99.90;;;;;;4956236;28;20039;-74
2024/01/27 11:17:25;;;;;;;29.77;6.03;;;10.60;99.90;;;;;;4939297;28;20035;-75
2024/01/27 11:19:51;;;;;;;21.10;5.25;;;10.50;99.90;;;;;;4955832;28;20024;-74
2024/01/27 11:22:28;;;;;;;24.15;6.70;;;10.60;99.90;;;;;;4956025;28;20102;-74
2024/01/27 11:25:12;;;;;;;25.42;6.55;;;10.90;99.90;;;;;;4955537;28;20054;-75
2024/01/27 11:27:43;;;;;;;25.27;7.70;;;11.30;99.90;;;;;;4938738;29;20032;-76
2024/01/27 11:30:24;;;;;;;30.05;6.43;;;11.80;99.90;;;;;;4955750;28;20043;-75
2024/01/27 11:32:50;;;;;;;22.60;6.07;;;12.10;99.90;;;;;;4953004;28;20020;-75
2024/01/27 11:35:17;;;;;;;22.90;5.97;;;12.30;99.90;;;;;;4951945;28;20039;-74
2024/01/27 11:37:43;;;;;;;24.02;6.35;;;12.20;99.90;;;;;;4955262;28;20587;-73
2024/01/27 11:40:09;;;;;;;23.67;6.00;;;12.20;99.90;;;;;;4955846;28;20035;-74
2024/01/27 11:42:35;;;;;;;26.90;6.50;;;12.20;99.90;;;;;;4938278;28;20039;-76
2024/01/27 11:45:01;;;;;;;24.92;5.95;;;12.30;99.90;;;;;;4934795;29;20032;-74
2024/01/27 11:47:27;;;;;;;28.05;6.53;;;12.50;99.90;;;;;;4938050;29;20055;-75
2024/01/27 11:49:56;;;;;;;25.63;5.97;;;12.70;99.90;;;;;;4955844;28;20032;-74
2024/01/27 11:52:23;;;;;;;25.30;6.68;;;13.00;99.90;;;;;;4937012;29;20024;-72
2024/01/27 11:54:58;;;;;;;21.75;5.95;;;13.20;99.90;;;;;;4953286;28;20099;-73
2024/01/27 11:57:25;;;;;;;20.45;5.53;;;13.50;99.90;;;;;;4936317;29;20426;-76
2024/01/27 11:59:52;;;;;;;16.27;5.55;;;13.70;99.90;;;;;;4954560;28;20027;-74
2024/01/27 12:02:18;;;;;;;27.75;6.60;;;13.90;99.90;;;;;;4954072;28;20035;-74
2024/01/27 12:04:43;;;;;;;23.33;7.05;;;14.00;99.90;;;;;;4944807;29;20043;-73
2024/01/27 12:07:09;;;;;;;25.15;6.60;;;13.90;99.90;;;;;;4954666;28;20023;-75
2024/01/27 12:09:36;;;;;;;34.83;7.20;;;13.80;99.90;;;;;;4937425;28;20024;-76
2024/01/27 12:12:02;;;;;;;52.15;17.23;;;13.90;99.90;;;;;;4938123;29;20110;-74
2024/01/27 12:14:44;;;;;;;26.02;7.85;;;13.80;99.90;;;;;;4953524;28;20043;-75
2024/01/27 12:17:12;;;;;;;24.70;7.00;;;13.80;99.90;;;;;;4954080;29;20055;-76
2024/01/27 12:19:38;;;;;;;23.70;6.88;;;13.90;99.90;;;;;;4938407;29;21064;-75
2024/01/27 12:22:20;;;;;;;27.75;7.07;;;14.20;99.90;;;;;;4954428;28;20097;-75
2024/01/27 12:24:46;;;;;;;24.80;6.53;;;14.40;99.90;;;;;;4935514;29;20038;-74
2024/01/27 12:27:12;;;;;;;30.60;6.65;;;14.60;99.90;;;;;;4935893;29;20034;-73
2024/01/27 12:29:37;;;;;;;24.25;6.68;;;14.90;99.90;;;;;;4937666;28;20027;-75
2024/01/27 12:32:03;;;;;;;25.13;6.80;;;14.80;99.90;;;;;;4953424;28;20052;-73
2024/01/27 12:34:29;;;;;;;23.20;6.40;;;14.70;99.90;;;;;;4937199;29;20027;-75
2024/01/27 12:36:55;;;;;;;22.10;6.38;;;14.70;99.90;;;;;;4953454;28;20069;-76
2024/01/27 12:39:21;;;;;;;23.67;6.70;;;14.60;99.90;;;;;;4933723;28;21432;-73
2024/01/27 12:41:47;;;;;;;29.90;6.65;;;14.60;99.90;;;;;;4934186;29;20036;-75